sensor_id;sensor_type;location;lat;lon;timestamp;temperature;humidity
11093;DHT22;5600;50.864;6.102;2023-03-13T00:01:18;11.80;99.90
11093;DHT22;5600;50.864;6.102;2023-03-13T00:04:19;11.80;99.90
11093;DHT22;5600;50.864;6.102;2023-03-13T00:07:20;11.70;99.90
11093;DHT22;5600;50.864;6.102;2023-03-13T00:10:20;11.50;99.90
11093;DHT22;5600;50.864;6.102;2023-03-13T00:13:21;11.50;99.90
11093;DHT22;5600;50.864;6.102;2023-03-13T00:16:22;11.50;99.90
11093;DHT22;5600;50.864;6.102;2023-03-13T00:19:23;11.40;99.90
11093;DHT22;5600;50.864;6.102;2023-03-13T00:22:24;11.40;99.90
11093;DHT22;5600;50.864;6.102;2023-03-13T00:25:24;11.50;99.90
11093;DHT22;5600;50.864;6.102;2023-03-13T00:28:27;11.50;99.90
11093;DHT22;5600;50.864;6.102;2023-03-13T00:31:30;11.50;99.90
11093;DHT22;5600;50.864;6.102;2023-03-13T00:34:31;11.60;99.90
11093;DHT22;5600;50.864;6.102;2023-03-13T00:37:32;11.60;99.90
11093;DHT22;5600;50.864;6.102;2023-03-13T00:40:33;11.70;99.90
11093;DHT22;5600;50.864;6.102;2023-03-13T00:43:34;11.70;99.90
11093;DHT22;5600;50.864;6.102;2023-03-13T00:46:35;11.70;99.90
11093;DHT22;5600;50.864;6.102;2023-03-13T00:49:36;11.80;99.90
11093;DHT22;5600;50.864;6.102;2023-03-13T00:52:37;11.80;99.90
11093;DHT22;5600;50.864;6.102;2023-03-13T00:55:37;11.80;99.90
11093;DHT22;5600;50.864;6.102;2023-03-13T00:58:40;11.90;99.90
11093;DHT22;5600;50.864;6.102;2023-03-13T01:01:41;11.90;99.90
11093;DHT22;5600;50.864;6.102;2023-03-13T01:04:41;11.90;99.90
11093;DHT22;5600;50.864;6.102;2023-03-13T01:07:42;12.00;99.90
11093;DHT22;5600;50.864;6.102;2023-03-13T01:10:42;12.00;99.90
11093;DHT22;5600;50.864;6.102;2023-03-13T01:13:44;12.00;99.90
11093;DHT22;5600;50.864;6.102;2023-03-13T01:16:45;12.00;99.90
11093;DHT22;5600;50.864;6.102;2023-03-13T01:19:46;12.00;99.90
11093;DHT22;5600;50.864;6.102;2023-03-13T01:22:47;11.90;99.90
11093;DHT22;5600;50.864;6.102;2023-03-13T01:25:48;12.00;99.90
11093;DHT22;5600;50.864;6.102;2023-03-13T01:28:49;11.90;99.90
11093;DHT22;5600;50.864;6.102;2023-03-13T01:31:51;11.80;99.90
11093;DHT22;5600;50.864;6.102;2023-03-13T01:34:52;11.70;99.90
11093;DHT22;5600;50.864;6.102;2023-03-13T01:37:52;11.60;99.90
11093;DHT22;5600;50.864;6.102;2023-03-13T01:40:53;11.50;99.90
11093;DHT22;5600;50.864;6.102;2023-03-13T01:43:54;11.30;99.90
11093;DHT22;5600;50.864;6.102;2023-03-13T01:46:55;11.20;99.90
11093;DHT22;5600;50.864;6.102;2023-03-13T01:49:58;11.20;99.90
11093;DHT22;5600;50.864;6.102;2023-03-13T01:53:17;11.20;99.90
11093;DHT22;5600;50.864;6.102;2023-03-13T01:56:24;11.20;99.90
11093;DHT22;5600;50.864;6.102;2023-03-13T01:59:36;11.30;99.90
11093;DHT22;5600;50.864;6.102;2023-03-13T02:02:44;11.20;99.90
11093;DHT22;5600;50.864;6.102;2023-03-13T02:05:46;11.10;99.90
11093;DHT22;5600;50.864;6.102;2023-03-13T02:08:58;11.20;99.90
11093;DHT22;5600;50.864;6.102;2023-03-13T02:12:07;11.20;99.90
11093;DHT22;5600;50.864;6.102;2023-03-13T02:15:20;11.20;99.90
11093;DHT22;5600;50.864;6.102;2023-03-13T02:18:22;11.20;99.90
11093;DHT22;5600;50.864;6.102;2023-03-13T02:21:54;11.20;99.90
11093;DHT22;5600;50.864;6.102;2023-03-13T02:28:12;11.20;99.90
11093;DHT22;5600;50.864;6.102;2023-03-13T02:31:16;11.30;99.90
11093;DHT22;5600;50.864;6.102;2023-03-13T02:34:20;11.40;99.90
11093;DHT22;5600;50.864;6.102;2023-03-13T02:37:24;11.50;99.90
11093;DHT22;5600;50.864;6.102;2023-03-13T02:40:34;11.50;99.90
11093;DHT22;5600;50.864;6.102;2023-03-13T02:43:37;11.60;99.90
11093;DHT22;5600;50.864;6.102;2023-03-13T02:46:49;11.70;99.90
11093;DHT22;5600;50.864;6.102;2023-03-13T02:49:53;11.70;99.90
11093;DHT22;5600;50.864;6.102;2023-03-13T02:53:00;11.70;99.90
11093;DHT22;5600;50.864;6.102;2023-03-13T02:56:03;11.70;99.90
11093;DHT22;5600;50.864;6.102;2023-03-13T02:59:04;11.70;99.90
11093;DHT22;5600;50.864;6.102;2023-03-13T03:02:07;11.80;99.90
11093;DHT22;5600;50.864;6.102;2023-03-13T03:05:08;11.80;99.90
11093;DHT22;5600;50.864;6.102;2023-03-13T03:08:09;11.90;99.90
11093;DHT22;5600;50.864;6.102;2023-03-13T03:11:10;11.90;99.90
11093;DHT22;5600;50.864;6.102;2023-03-13T03:14:12;12.00;99.90
11093;DHT22;5600;50.864;6.102;2023-03-13T03:17:16;12.00;99.90
11093;DHT22;5600;50.864;6.102;2023-03-13T03:20:17;12.10;99.90
11093;DHT22;5600;50.864;6.102;2023-03-13T03:23:18;12.20;99.90
11093;DHT22;5600;50.864;6.102;2023-03-13T03:26:19;12.30;99.90
11093;DHT22;5600;50.864;6.102;2023-03-13T03:29:19;12.30;99.90
11093;DHT22;5600;50.864;6.102;2023-03-13T03:32:23;12.30;99.90
11093;DHT22;5600;50.864;6.102;2023-03-13T03:35:24;12.30;99.90
11093;DHT22;5600;50.864;6.102;2023-03-13T03:38:25;12.30;99.90
11093;DHT22;5600;50.864;6.102;2023-03-13T03:41:26;12.30;99.90
11093;DHT22;5600;50.864;6.102;2023-03-13T03:44:28;12.30;99.90
11093;DHT22;5600;50.864;6.102;2023-03-13T03:47:32;12.40;99.90
11093;DHT22;5600;50.864;6.102;2023-03-13T03:50:34;12.40;99.90
11093;DHT22;5600;50.864;6.102;2023-03-13T03:53:36;12.40;99.90
11093;DHT22;5600;50.864;6.102;2023-03-13T03:56:36;12.40;99.90
11093;DHT22;5600;50.864;6.102;2023-03-13T03:59:38;12.30;99.90
11093;DHT22;5600;50.864;6.102;2023-03-13T04:02:42;12.30;99.90
11093;DHT22;5600;50.864;6.102;2023-03-13T04:05:43;12.40;99.90
11093;DHT22;5600;50.864;6.102;2023-03-13T04:08:45;12.40;99.90
11093;DHT22;5600;50.864;6.102;2023-03-13T04:11:49;12.50;99.90
11093;DHT22;5600;50.864;6.102;2023-03-13T04:14:50;12.50;99.90
11093;DHT22;5600;50.864;6.102;2023-03-13T04:17:51;12.60;99.90
11093;DHT22;5600;50.864;6.102;2023-03-13T04:21:02;13.70;99.90
11093;DHT22;5600;50.864;6.102;2023-03-13T04:24:09;12.70;99.90
11093;DHT22;5600;50.864;6.102;2023-03-13T04:27:12;12.80;99.90
11093;DHT22;5600;50.864;6.102;2023-03-13T04:30:15;12.70;99.90
11093;DHT22;5600;50.864;6.102;2023-03-13T04:33:39;12.80;99.90
11093;DHT22;5600;50.864;6.102;2023-03-13T04:37:04;12.80;99.90
11093;DHT22;5600;50.864;6.102;2023-03-13T04:40:27;12.80;99.90
11093;DHT22;5600;50.864;6.102;2023-03-13T04:43:37;12.80;99.90
11093;DHT22;5600;50.864;6.102;2023-03-13T04:46:58;11.80;99.90
11093;DHT22;5600;50.864;6.102;2023-03-13T04:50:12;12.80;99.90
11093;DHT22;5600;50.864;6.102;2023-03-13T04:53:35;12.80;99.90
11093;DHT22;5600;50.864;6.102;2023-03-13T04:56:55;12.90;99.90
11093;DHT22;5600;50.864;6.102;2023-03-13T05:00:05;12.90;99.90
11093;DHT22;5600;50.864;6.102;2023-03-13T05:03:15;13.00;99.90
11093;DHT22;5600;50.864;6.102;2023-03-13T05:06:33;13.00;99.90
11093;DHT22;5600;50.864;6.102;2023-03-13T05:09:39;13.00;99.90
11093;DHT22;5600;50.864;6.102;2023-03-13T05:13:14;13.10;99.90
11093;DHT22;5600;50.864;6.102;2023-03-13T05:16:30;13.10;99.90
11093;DHT22;5600;50.864;6.102;2023-03-13T05:19:49;13.20;99.90
11093;DHT22;5600;50.864;6.102;2023-03-13T05:23:03;13.20;99.90
11093;DHT22;5600;50.864;6.102;2023-03-13T05:26:28;13.20;99.90
11093;DHT22;5600;50.864;6.102;2023-03-13T05:29:48;13.20;99.90
11093;DHT22;5600;50.864;6.102;2023-03-13T05:33:07;13.20;99.90
11093;DHT22;5600;50.864;6.102;2023-03-13T05:36:34;13.20;99.90
11093;DHT22;5600;50.864;6.102;2023-03-13T05:40:10;13.20;99.90
11093;DHT22;5600;50.864;6.102;2023-03-13T05:43:20;13.30;99.90
11093;DHT22;5600;50.864;6.102;2023-03-13T05:46:23;13.30;99.90
11093;DHT22;5600;50.864;6.102;2023-03-13T05:49:32;13.30;99.90
11093;DHT22;5600;50.864;6.102;2023-03-13T05:52:41;13.40;99.90
11093;DHT22;5600;50.864;6.102;2023-03-13T05:55:56;13.40;99.90
11093;DHT22;5600;50.864;6.102;2023-03-13T05:59:17;13.50;99.90
11093;DHT22;5600;50.864;6.102;2023-03-13T06:02:36;13.50;99.90
11093;DHT22;5600;50.864;6.102;2023-03-13T06:05:39;13.50;99.90
11093;DHT22;5600;50.864;6.102;2023-03-13T06:08:51;13.50;99.90
11093;DHT22;5600;50.864;6.102;2023-03-13T06:11:53;13.50;99.90
11093;DHT22;5600;50.864;6.102;2023-03-13T06:14:54;13.50;99.90
11093;DHT22;5600;50.864;6.102;2023-03-13T06:18:06;13.60;99.90
11093;DHT22;5600;50.864;6.102;2023-03-13T06:21:06;13.60;99.90
11093;DHT22;5600;50.864;6.102;2023-03-13T06:24:07;13.60;99.90
11093;DHT22;5600;50.864;6.102;2023-03-13T06:27:09;13.60;99.90
11093;DHT22;5600;50.864;6.102;2023-03-13T06:30:10;13.70;99.90
11093;DHT22;5600;50.864;6.102;2023-03-13T06:33:11;13.80;99.90
11093;DHT22;5600;50.864;6.102;2023-03-13T06:36:12;13.70;99.90
11093;DHT22;5600;50.864;6.102;2023-03-13T06:39:13;13.80;99.90
11093;DHT22;5600;50.864;6.102;2023-03-13T06:42:14;13.80;99.90
11093;DHT22;5600;50.864;6.102;2023-03-13T06:45:15;13.80;99.90
11093;DHT22;5600;50.864;6.102;2023-03-13T06:48:16;13.80;99.90
11093;DHT22;5600;50.864;6.102;2023-03-13T06:51:19;13.80;99.90
11093;DHT22;5600;50.864;6.102;2023-03-13T06:54:20;13.90;99.90
11093;DHT22;5600;50.864;6.102;2023-03-13T06:57:21;13.90;99.90
11093;DHT22;5600;50.864;6.102;2023-03-13T07:00:22;13.90;99.90
11093;DHT22;5600;50.864;6.102;2023-03-13T07:06:25;14.00;99.90
11093;DHT22;5600;50.864;6.102;2023-03-13T07:09:26;14.10;99.90
11093;DHT22;5600;50.864;6.102;2023-03-13T07:12:27;14.10;99.90
11093;DHT22;5600;50.864;6.102;2023-03-13T07:15:28;14.20;99.90
11093;DHT22;5600;50.864;6.102;2023-03-13T07:18:29;14.20;99.90
11093;DHT22;5600;50.864;6.102;2023-03-13T07:21:30;14.20;99.90
11093;DHT22;5600;50.864;6.102;2023-03-13T07:24:30;14.30;99.90
11093;DHT22;5600;50.864;6.102;2023-03-13T07:27:32;14.30;99.90
11093;DHT22;5600;50.864;6.102;2023-03-13T07:30:33;14.30;99.90
11093;DHT22;5600;50.864;6.102;2023-03-13T07:33:34;14.30;99.90
11093;DHT22;5600;50.864;6.102;2023-03-13T07:36:35;14.30;99.90
11093;DHT22;5600;50.864;6.102;2023-03-13T07:42:40;14.40;99.90
11093;DHT22;5600;50.864;6.102;2023-03-13T07:46:01;14.30;99.90
11093;DHT22;5600;50.864;6.102;2023-03-13T07:49:03;14.30;99.90
11093;DHT22;5600;50.864;6.102;2023-03-13T07:52:04;14.30;99.90
11093;DHT22;5600;50.864;6.102;2023-03-13T07:55:05;14.30;99.90
11093;DHT22;5600;50.864;6.102;2023-03-13T07:58:05;14.30;99.90
11093;DHT22;5600;50.864;6.102;2023-03-13T08:04:12;14.40;99.90
11093;DHT22;5600;50.864;6.102;2023-03-13T08:07:13;14.20;99.90
11093;DHT22;5600;50.864;6.102;2023-03-13T08:10:14;13.90;99.90
11093;DHT22;5600;50.864;6.102;2023-03-13T08:13:15;13.90;99.90
11093;DHT22;5600;50.864;6.102;2023-03-13T08:16:28;13.90;99.90
11093;DHT22;5600;50.864;6.102;2023-03-13T08:19:29;13.90;99.90
11093;DHT22;5600;50.864;6.102;2023-03-13T08:22:30;13.80;99.90
11093;DHT22;5600;50.864;6.102;2023-03-13T08:25:32;13.60;99.90
11093;DHT22;5600;50.864;6.102;2023-03-13T08:28:33;13.60;99.90
11093;DHT22;5600;50.864;6.102;2023-03-13T08:31:37;13.60;99.90
11093;DHT22;5600;50.864;6.102;2023-03-13T08:34:38;13.70;99.90
11093;DHT22;5600;50.864;6.102;2023-03-13T08:37:39;13.80;99.90
11093;DHT22;5600;50.864;6.102;2023-03-13T08:40:40;13.90;99.90
11093;DHT22;5600;50.864;6.102;2023-03-13T08:43:42;13.90;99.90
11093;DHT22;5600;50.864;6.102;2023-03-13T08:46:43;13.90;99.90
11093;DHT22;5600;50.864;6.102;2023-03-13T08:49:44;14.00;99.90
11093;DHT22;5600;50.864;6.102;2023-03-13T08:52:45;14.00;99.90
11093;DHT22;5600;50.864;6.102;2023-03-13T08:55:54;14.10;99.90
11093;DHT22;5600;50.864;6.102;2023-03-13T08:59:00;14.10;99.90
11093;DHT22;5600;50.864;6.102;2023-03-13T09:02:01;14.10;99.90
11093;DHT22;5600;50.864;6.102;2023-03-13T09:05:02;14.10;99.90
11093;DHT22;5600;50.864;6.102;2023-03-13T09:08:04;14.20;99.90
11093;DHT22;5600;50.864;6.102;2023-03-13T09:11:08;14.30;99.90
11093;DHT22;5600;50.864;6.102;2023-03-13T09:14:10;14.70;99.90
11093;DHT22;5600;50.864;6.102;2023-03-13T09:17:10;14.80;99.90
11093;DHT22;5600;50.864;6.102;2023-03-13T09:20:11;14.90;99.90
11093;DHT22;5600;50.864;6.102;2023-03-13T09:23:12;15.00;99.90
11093;DHT22;5600;50.864;6.102;2023-03-13T09:26:14;14.90;99.90
11093;DHT22;5600;50.864;6.102;2023-03-13T09:29:15;15.00;99.90
11093;DHT22;5600;50.864;6.102;2023-03-13T09:32:16;15.00;99.90
11093;DHT22;5600;50.864;6.102;2023-03-13T09:35:20;13.80;99.90
11093;DHT22;5600;50.864;6.102;2023-03-13T09:38:20;15.10;99.90
11093;DHT22;5600;50.864;6.102;2023-03-13T09:41:25;15.10;99.90
11093;DHT22;5600;50.864;6.102;2023-03-13T09:44:30;15.10;99.90
11093;DHT22;5600;50.864;6.102;2023-03-13T09:47:47;15.10;99.90
11093;DHT22;5600;50.864;6.102;2023-03-13T09:51:12;15.20;99.90
11093;DHT22;5600;50.864;6.102;2023-03-13T09:54:23;15.30;99.90
11093;DHT22;5600;50.864;6.102;2023-03-13T09:57:37;15.50;99.90
11093;DHT22;5600;50.864;6.102;2023-03-13T10:00:42;15.70;99.90
11093;DHT22;5600;50.864;6.102;2023-03-13T10:04:00;15.90;99.90
11093;DHT22;5600;50.864;6.102;2023-03-13T10:07:03;15.80;99.90
11093;DHT22;5600;50.864;6.102;2023-03-13T10:10:56;15.70;99.90
11093;DHT22;5600;50.864;6.102;2023-03-13T10:13:50;15.70;99.90
11093;DHT22;5600;50.864;6.102;2023-03-13T10:17:12;15.70;99.90
11093;DHT22;5600;50.864;6.102;2023-03-13T10:20:25;15.70;99.90
11093;DHT22;5600;50.864;6.102;2023-03-13T10:26:44;15.50;99.90
11093;DHT22;5600;50.864;6.102;2023-03-13T10:29:45;15.50;99.90
11093;DHT22;5600;50.864;6.102;2023-03-13T10:32:46;15.50;99.90
11093;DHT22;5600;50.864;6.102;2023-03-13T10:35:59;15.50;99.90
11093;DHT22;5600;50.864;6.102;2023-03-13T10:42:10;15.60;99.90
11093;DHT22;5600;50.864;6.102;2023-03-13T10:45:20;15.40;99.90
11093;DHT22;5600;50.864;6.102;2023-03-13T10:48:24;15.30;99.90
11093;DHT22;5600;50.864;6.102;2023-03-13T10:51:36;15.40;99.90
11093;DHT22;5600;50.864;6.102;2023-03-13T10:54:38;15.60;99.90
11093;DHT22;5600;50.864;6.102;2023-03-13T10:57:42;15.70;99.90
11093;DHT22;5600;50.864;6.102;2023-03-13T11:00:43;16.10;99.90
11093;DHT22;5600;50.864;6.102;2023-03-13T11:03:46;16.30;99.90
11093;DHT22;5600;50.864;6.102;2023-03-13T11:06:50;16.30;99.90
11093;DHT22;5600;50.864;6.102;2023-03-13T11:10:01;16.00;99.90
11093;DHT22;5600;50.864;6.102;2023-03-13T11:13:02;15.90;99.90
11093;DHT22;5600;50.864;6.102;2023-03-13T11:16:25;15.90;99.90
11093;DHT22;5600;50.864;6.102;2023-03-13T11:19:51;16.00;99.90
11093;DHT22;5600;50.864;6.102;2023-03-13T11:26:29;16.50;99.90
11093;DHT22;5600;50.864;6.102;2023-03-13T11:33:23;16.50;99.90
11093;DHT22;5600;50.864;6.102;2023-03-13T11:36:37;16.70;99.90
11093;DHT22;5600;50.864;6.102;2023-03-13T11:43:04;17.00;99.90
11093;DHT22;5600;50.864;6.102;2023-03-13T11:46:32;16.90;99.90
11093;DHT22;5600;50.864;6.102;2023-03-13T11:49:54;16.70;99.90
11093;DHT22;5600;50.864;6.102;2023-03-13T11:56:23;16.80;99.90
11093;DHT22;5600;50.864;6.102;2023-03-13T11:59:40;16.90;99.90
11093;DHT22;5600;50.864;6.102;2023-03-13T12:02:53;17.00;99.90
11093;DHT22;5600;50.864;6.102;2023-03-13T12:05:57;17.30;99.90
11093;DHT22;5600;50.864;6.102;2023-03-13T12:09:22;17.40;99.90
11093;DHT22;5600;50.864;6.102;2023-03-13T12:15:41;17.60;99.90
11093;DHT22;5600;50.864;6.102;2023-03-13T12:18:45;17.50;99.90
11093;DHT22;5600;50.864;6.102;2023-03-13T12:21:53;17.50;99.90
11093;DHT22;5600;50.864;6.102;2023-03-13T12:25:02;17.40;99.90
11093;DHT22;5600;50.864;6.102;2023-03-13T12:31:25;17.40;99.90
11093;DHT22;5600;50.864;6.102;2023-03-13T12:37:49;17.30;99.90
11093;DHT22;5600;50.864;6.102;2023-03-13T12:44:21;16.90;99.90
11093;DHT22;5600;50.864;6.102;2023-03-13T12:47:38;16.90;99.90
11093;DHT22;5600;50.864;6.102;2023-03-13T12:51:11;17.20;99.90
11093;DHT22;5600;50.864;6.102;2023-03-13T13:00:44;17.10;99.90
11093;DHT22;5600;50.864;6.102;2023-03-13T13:07:02;17.00;99.90
11093;DHT22;5600;50.864;6.102;2023-03-13T13:16:18;16.70;99.90
11093;DHT22;5600;50.864;6.102;2023-03-13T13:25:36;16.80;99.90
11093;DHT22;5600;50.864;6.102;2023-03-13T13:28:36;16.60;99.90
11093;DHT22;5600;50.864;6.102;2023-03-13T13:31:46;16.50;99.90
11093;DHT22;5600;50.864;6.102;2023-03-13T13:44:21;16.30;99.90
11093;DHT22;5600;50.864;6.102;2023-03-13T13:47:24;16.20;99.90
11093;DHT22;5600;50.864;6.102;2023-03-13T13:50:27;16.20;99.90
11093;DHT22;5600;50.864;6.102;2023-03-13T13:56:41;16.40;99.90
11093;DHT22;5600;50.864;6.102;2023-03-13T13:59:52;16.40;99.90
11093;DHT22;5600;50.864;6.102;2023-03-13T14:02:55;16.40;99.90
11093;DHT22;5600;50.864;6.102;2023-03-13T14:06:02;16.50;99.90
11093;DHT22;5600;50.864;6.102;2023-03-13T14:09:30;16.40;99.90
11093;DHT22;5600;50.864;6.102;2023-03-13T14:12:33;16.40;99.90
11093;DHT22;5600;50.864;6.102;2023-03-13T14:15:35;16.40;99.90
11093;DHT22;5600;50.864;6.102;2023-03-13T14:18:40;16.40;99.90
11093;DHT22;5600;50.864;6.102;2023-03-13T14:21:42;16.40;99.90
11093;DHT22;5600;50.864;6.102;2023-03-13T14:24:55;16.40;99.90
11093;DHT22;5600;50.864;6.102;2023-03-13T14:27:56;16.40;99.90
11093;DHT22;5600;50.864;6.102;2023-03-13T14:30:57;16.40;99.90
11093;DHT22;5600;50.864;6.102;2023-03-13T14:34:01;16.40;99.90
11093;DHT22;5600;50.864;6.102;2023-03-13T14:40:55;16.30;99.90
11093;DHT22;5600;50.864;6.102;2023-03-13T14:44:02;16.20;99.90
11093;DHT22;5600;50.864;6.102;2023-03-13T14:47:10;16.10;99.90
11093;DHT22;5600;50.864;6.102;2023-03-13T14:50:17;16.10;99.90
11093;DHT22;5600;50.864;6.102;2023-03-13T14:53:20;16.10;99.90
11093;DHT22;5600;50.864;6.102;2023-03-13T14:56:30;16.20;99.90
11093;DHT22;5600;50.864;6.102;2023-03-13T14:59:31;16.20;99.90
11093;DHT22;5600;50.864;6.102;2023-03-13T15:02:32;16.20;99.90
11093;DHT22;5600;50.864;6.102;2023-03-13T15:05:33;15.40;99.90
11093;DHT22;5600;50.864;6.102;2023-03-13T15:08:45;16.40;99.90
11093;DHT22;5600;50.864;6.102;2023-03-13T15:11:58;16.70;99.90
11093;DHT22;5600;50.864;6.102;2023-03-13T15:15:00;16.90;99.90
11093;DHT22;5600;50.864;6.102;2023-03-13T15:18:16;17.00;99.90
11093;DHT22;5600;50.864;6.102;2023-03-13T15:21:29;16.90;99.90
11093;DHT22;5600;50.864;6.102;2023-03-13T15:24:30;16.90;99.90
11093;DHT22;5600;50.864;6.102;2023-03-13T15:27:31;17.00;99.90
11093;DHT22;5600;50.864;6.102;2023-03-13T15:30:32;17.10;99.90
11093;DHT22;5600;50.864;6.102;2023-03-13T15:33:33;17.10;99.90
11093;DHT22;5600;50.864;6.102;2023-03-13T15:36:34;17.10;99.90
11093;DHT22;5600;50.864;6.102;2023-03-13T15:39:35;16.90;99.90
11093;DHT22;5600;50.864;6.102;2023-03-13T15:42:36;16.70;99.90
11093;DHT22;5600;50.864;6.102;2023-03-13T15:45:38;16.70;99.90
11093;DHT22;5600;50.864;6.102;2023-03-13T15:48:39;16.70;99.90
11093;DHT22;5600;50.864;6.102;2023-03-13T15:51:41;16.60;99.90
11093;DHT22;5600;50.864;6.102;2023-03-13T15:54:42;16.60;99.90
11093;DHT22;5600;50.864;6.102;2023-03-13T15:57:45;16.60;99.90
11093;DHT22;5600;50.864;6.102;2023-03-13T16:00:48;16.50;99.90
11093;DHT22;5600;50.864;6.102;2023-03-13T16:03:49;16.40;99.90
11093;DHT22;5600;50.864;6.102;2023-03-13T16:06:49;16.30;99.90
11093;DHT22;5600;50.864;6.102;2023-03-13T16:12:52;16.10;99.90
11093;DHT22;5600;50.864;6.102;2023-03-13T16:15:53;16.00;99.90
11093;DHT22;5600;50.864;6.102;2023-03-13T16:18:55;15.90;99.90
11093;DHT22;5600;50.864;6.102;2023-03-13T16:21:56;15.40;99.90
11093;DHT22;5600;50.864;6.102;2023-03-13T16:24:57;15.90;99.90
11093;DHT22;5600;50.864;6.102;2023-03-13T16:27:58;15.80;99.90
11093;DHT22;5600;50.864;6.102;2023-03-13T16:30:59;15.80;99.90
11093;DHT22;5600;50.864;6.102;2023-03-13T16:33:59;15.70;99.90
11093;DHT22;5600;50.864;6.102;2023-03-13T16:37:01;15.60;99.90
11093;DHT22;5600;50.864;6.102;2023-03-13T16:40:02;15.60;99.90
11093;DHT22;5600;50.864;6.102;2023-03-13T16:43:05;15.50;99.90
11093;DHT22;5600;50.864;6.102;2023-03-13T16:46:28;15.50;99.90
11093;DHT22;5600;50.864;6.102;2023-03-13T16:49:29;15.40;99.90
11093;DHT22;5600;50.864;6.102;2023-03-13T16:52:30;15.30;99.90
11093;DHT22;5600;50.864;6.102;2023-03-13T16:55:31;15.30;99.90
11093;DHT22;5600;50.864;6.102;2023-03-13T16:58:35;15.20;99.90
11093;DHT22;5600;50.864;6.102;2023-03-13T17:01:36;15.20;99.90
11093;DHT22;5600;50.864;6.102;2023-03-13T17:04:36;15.20;99.90
11093;DHT22;5600;50.864;6.102;2023-03-13T17:07:37;15.20;99.90
11093;DHT22;5600;50.864;6.102;2023-03-13T17:10:38;15.10;99.90
11093;DHT22;5600;50.864;6.102;2023-03-13T17:13:39;15.10;99.90
11093;DHT22;5600;50.864;6.102;2023-03-13T17:16:41;15.00;99.90
11093;DHT22;5600;50.864;6.102;2023-03-13T17:19:44;15.00;99.90
11093;DHT22;5600;50.864;6.102;2023-03-13T17:22:44;15.00;99.90
11093;DHT22;5600;50.864;6.102;2023-03-13T17:25:45;15.00;99.90
11093;DHT22;5600;50.864;6.102;2023-03-13T17:28:48;14.90;99.90
11093;DHT22;5600;50.864;6.102;2023-03-13T17:31:49;14.90;99.90
11093;DHT22;5600;50.864;6.102;2023-03-13T17:34:50;14.80;99.90
11093;DHT22;5600;50.864;6.102;2023-03-13T17:37:51;14.80;99.90
11093;DHT22;5600;50.864;6.102;2023-03-13T17:40:52;14.70;99.90
11093;DHT22;5600;50.864;6.102;2023-03-13T17:43:54;14.80;99.90
11093;DHT22;5600;50.864;6.102;2023-03-13T17:46:55;14.60;99.90
11093;DHT22;5600;50.864;6.102;2023-03-13T17:49:56;14.60;99.90
11093;DHT22;5600;50.864;6.102;2023-03-13T17:52:56;14.50;99.90
11093;DHT22;5600;50.864;6.102;2023-03-13T17:55:57;14.50;99.90
11093;DHT22;5600;50.864;6.102;2023-03-13T17:58:59;14.40;99.90
11093;DHT22;5600;50.864;6.102;2023-03-13T18:02:00;14.40;99.90
11093;DHT22;5600;50.864;6.102;2023-03-13T18:05:01;14.40;99.90
11093;DHT22;5600;50.864;6.102;2023-03-13T18:08:01;14.30;99.90
11093;DHT22;5600;50.864;6.102;2023-03-13T18:11:02;14.30;99.90
11093;DHT22;5600;50.864;6.102;2023-03-13T18:14:03;14.20;99.90
11093;DHT22;5600;50.864;6.102;2023-03-13T18:17:16;14.20;99.90
11093;DHT22;5600;50.864;6.102;2023-03-13T18:20:20;14.20;99.90
11093;DHT22;5600;50.864;6.102;2023-03-13T18:23:21;14.20;99.90
11093;DHT22;5600;50.864;6.102;2023-03-13T18:26:30;14.20;99.90
11093;DHT22;5600;50.864;6.102;2023-03-13T18:29:31;14.20;99.90
11093;DHT22;5600;50.864;6.102;2023-03-13T18:32:32;14.20;99.90
11093;DHT22;5600;50.864;6.102;2023-03-13T18:35:32;14.20;99.90
11093;DHT22;5600;50.864;6.102;2023-03-13T18:38:33;14.10;99.90
11093;DHT22;5600;50.864;6.102;2023-03-13T18:41:33;14.10;99.90
11093;DHT22;5600;50.864;6.102;2023-03-13T18:44:34;14.00;99.90
11093;DHT22;5600;50.864;6.102;2023-03-13T18:47:35;14.00;99.90
11093;DHT22;5600;50.864;6.102;2023-03-13T18:50:36;14.00;99.90
11093;DHT22;5600;50.864;6.102;2023-03-13T18:53:36;14.00;99.90
11093;DHT22;5600;50.864;6.102;2023-03-13T18:56:37;13.90;99.90
11093;DHT22;5600;50.864;6.102;2023-03-13T18:59:38;13.90;99.90
11093;DHT22;5600;50.864;6.102;2023-03-13T19:02:39;13.90;99.90
11093;DHT22;5600;50.864;6.102;2023-03-13T19:05:39;13.80;99.90
11093;DHT22;5600;50.864;6.102;2023-03-13T19:08:40;13.80;99.90
11093;DHT22;5600;50.864;6.102;2023-03-13T19:11:41;13.80;99.90
11093;DHT22;5600;50.864;6.102;2023-03-13T19:14:42;13.80;99.90
11093;DHT22;5600;50.864;6.102;2023-03-13T19:17:43;13.70;99.90
11093;DHT22;5600;50.864;6.102;2023-03-13T19:20:44;13.60;99.90
11093;DHT22;5600;50.864;6.102;2023-03-13T19:23:44;13.60;99.90
11093;DHT22;5600;50.864;6.102;2023-03-13T19:26:47;13.40;99.90
11093;DHT22;5600;50.864;6.102;2023-03-13T19:29:53;13.50;99.90
11093;DHT22;5600;50.864;6.102;2023-03-13T19:32:53;13.40;99.90
11093;DHT22;5600;50.864;6.102;2023-03-13T19:35:54;13.30;99.90
11093;DHT22;5600;50.864;6.102;2023-03-13T19:38:55;13.20;99.90
11093;DHT22;5600;50.864;6.102;2023-03-13T19:41:55;13.20;99.90
11093;DHT22;5600;50.864;6.102;2023-03-13T19:44:56;13.30;99.90
11093;DHT22;5600;50.864;6.102;2023-03-13T19:47:56;13.20;99.90
11093;DHT22;5600;50.864;6.102;2023-03-13T19:50:57;13.10;99.90
11093;DHT22;5600;50.864;6.102;2023-03-13T19:53:58;13.20;99.90
11093;DHT22;5600;50.864;6.102;2023-03-13T19:56:58;13.10;99.90
11093;DHT22;5600;50.864;6.102;2023-03-13T19:59:59;13.10;99.90
11093;DHT22;5600;50.864;6.102;2023-03-13T20:03:00;12.90;99.90
11093;DHT22;5600;50.864;6.102;2023-03-13T20:06:00;12.80;99.90
11093;DHT22;5600;50.864;6.102;2023-03-13T20:09:04;12.80;99.90
11093;DHT22;5600;50.864;6.102;2023-03-13T20:12:05;12.70;99.90
11093;DHT22;5600;50.864;6.102;2023-03-13T20:15:06;12.70;99.90
11093;DHT22;5600;50.864;6.102;2023-03-13T20:18:07;12.80;99.90
11093;DHT22;5600;50.864;6.102;2023-03-13T20:21:09;12.80;99.90
11093;DHT22;5600;50.864;6.102;2023-03-13T20:24:10;12.80;99.90
11093;DHT22;5600;50.864;6.102;2023-03-13T20:27:10;12.80;99.90
11093;DHT22;5600;50.864;6.102;2023-03-13T20:30:11;12.70;99.90
11093;DHT22;5600;50.864;6.102;2023-03-13T20:33:12;12.70;99.90
11093;DHT22;5600;50.864;6.102;2023-03-13T20:36:15;12.60;99.90
11093;DHT22;5600;50.864;6.102;2023-03-13T20:39:15;12.60;99.90
11093;DHT22;5600;50.864;6.102;2023-03-13T20:42:16;12.60;99.90
11093;DHT22;5600;50.864;6.102;2023-03-13T20:45:17;12.60;99.90
11093;DHT22;5600;50.864;6.102;2023-03-13T20:48:18;12.50;99.90
11093;DHT22;5600;50.864;6.102;2023-03-13T20:51:18;12.60;99.90
11093;DHT22;5600;50.864;6.102;2023-03-13T20:54:20;12.50;99.90
11093;DHT22;5600;50.864;6.102;2023-03-13T20:57:20;12.50;99.90
11093;DHT22;5600;50.864;6.102;2023-03-13T21:00:21;12.40;99.90
11093;DHT22;5600;50.864;6.102;2023-03-13T21:03:22;12.40;99.90
11093;DHT22;5600;50.864;6.102;2023-03-13T21:06:23;12.40;99.90
11093;DHT22;5600;50.864;6.102;2023-03-13T21:09:24;12.40;99.90
11093;DHT22;5600;50.864;6.102;2023-03-13T21:12:24;12.30;99.90